createdAt,value
2022-12-14T00:01:27.885Z,27.47
2022-12-14T00:03:56.116Z,26.17
2022-12-14T00:06:28.091Z,26.13
2022-12-14T00:08:58.663Z,28.60
2022-12-14T00:11:26.061Z,25.50
2022-12-14T00:13:54.736Z,23.73
2022-12-14T00:16:22.341Z,24.17
2022-12-14T00:18:52.492Z,23.47
2022-12-14T00:21:20.181Z,25.80
2022-12-14T00:23:48.592Z,23.60
2022-12-14T00:26:20.822Z,28.07
2022-12-14T00:28:49.452Z,25.50
2022-12-14T00:31:16.760Z,25.37
2022-12-14T00:33:44.312Z,23.47
2022-12-14T00:36:12.625Z,24.23
2022-12-14T00:38:40.441Z,27.53
2022-12-14T00:41:07.667Z,24.63
2022-12-14T00:43:34.406Z,26.97
2022-12-14T00:46:01.131Z,24.53
2022-12-14T00:48:28.640Z,25.10
2022-12-14T00:50:56.287Z,24.43
2022-12-14T00:53:24.201Z,25.03
2022-12-14T00:55:51.396Z,23.80
2022-12-14T00:58:21.205Z,23.90
2022-12-14T01:00:58.220Z,22.07
2022-12-14T01:03:25.207Z,23.30
2022-12-14T01:05:52.309Z,21.40
2022-12-14T01:08:20.539Z,24.73
2022-12-14T01:10:47.276Z,23.67
2022-12-14T01:13:13.991Z,24.17
2022-12-14T01:15:40.731Z,25.20
2022-12-14T01:18:07.516Z,25.63
2022-12-14T01:20:34.160Z,28.17
2022-12-14T01:23:00.796Z,24.17
2022-12-14T01:25:27.479Z,25.97
2022-12-14T01:27:54.295Z,23.10
2022-12-14T01:30:21.119Z,24.13
2022-12-14T01:32:47.809Z,24.50
2022-12-14T01:35:14.719Z,26.90
2022-12-14T01:37:41.395Z,22.23
2022-12-14T01:40:08.638Z,24.97
2022-12-14T01:42:36.834Z,24.20
2022-12-14T01:45:05.717Z,23.50
2022-12-14T01:47:44.518Z,29.13
2022-12-14T01:50:16.731Z,29.10
2022-12-14T01:52:46.962Z,26.10
2022-12-14T01:55:28.527Z,28.37
2022-12-14T01:58:02.941Z,21.13
2022-12-14T02:00:29.973Z,23.67
2022-12-14T02:03:12.196Z,26.07
2022-12-14T02:05:51.509Z,25.20
2022-12-14T02:08:20.645Z,23.90
2022-12-14T02:10:49.409Z,24.67
2022-12-14T02:13:31.452Z,31.27
2022-12-14T02:15:58.264Z,25.90
2022-12-14T02:18:27.813Z,27.73
2022-12-14T02:21:16.273Z,24.87
2022-12-14T02:24:09.412Z,29.50
2022-12-14T02:27:04.262Z,25.80
2022-12-14T02:29:45.953Z,25.37
2022-12-14T02:32:48.638Z,25.53
2022-12-14T02:35:25.792Z,25.03
2022-12-14T02:38:01.473Z,23.73
2022-12-14T02:40:48.403Z,24.57
2022-12-14T02:43:32.861Z,24.73
2022-12-14T02:46:23.576Z,26.90
2022-12-14T02:49:10.732Z,25.60
2022-12-14T02:52:34.774Z,28.13
2022-12-14T02:55:18.198Z,27.63
2022-12-14T02:57:58.462Z,29.03
2022-12-14T03:00:25.764Z,23.90
2022-12-14T03:02:53.387Z,30.33
2022-12-14T03:05:20.124Z,26.40
2022-12-14T03:08:14.353Z,28.30
2022-12-14T03:11:04.390Z,23.20
2022-12-14T03:13:39.535Z,28.07
2022-12-14T03:16:21.723Z,24.50
2022-12-14T03:19:07.429Z,20.77
2022-12-14T03:21:53.637Z,27.00
2022-12-14T03:24:27.157Z,24.93
2022-12-14T03:27:01.233Z,31.83
2022-12-14T03:29:38.722Z,26.20
2022-12-14T03:32:19.095Z,28.47
2022-12-14T03:35:13.610Z,27.67
2022-12-14T03:37:43.021Z,28.93
2022-12-14T03:40:13.334Z,24.77
2022-12-14T03:42:49.577Z,26.13
2022-12-14T03:45:30.242Z,25.77
2022-12-14T03:48:05.870Z,26.20
2022-12-14T03:50:41.286Z,26.50
2022-12-14T03:53:20.570Z,26.63
2022-12-14T03:56:03.089Z,29.23
2022-12-14T03:58:42.375Z,28.23
2022-12-14T04:01:27.198Z,29.73
2022-12-14T04:04:10.072Z,27.17
2022-12-14T04:06:36.671Z,29.43
2022-12-14T04:09:17.366Z,29.37
2022-12-14T04:12:10.610Z,26.53
2022-12-14T04:15:05.425Z,28.13
2022-12-14T04:17:54.403Z,25.57
2022-12-14T04:20:41.221Z,27.07
2022-12-14T04:23:15.570Z,27.43
2022-12-14T04:26:05.150Z,25.10
2022-12-14T04:29:03.486Z,32.50
2022-12-14T04:31:32.728Z,26.07
2022-12-14T04:34:04.367Z,27.97
2022-12-14T04:36:48.999Z,27.63
2022-12-14T04:39:21.050Z,27.63
2022-12-14T04:41:51.874Z,26.33
2022-12-14T04:44:40.440Z,27.30
2022-12-14T04:47:11.235Z,28.87
2022-12-14T04:49:59.620Z,25.67
2022-12-14T04:52:40.798Z,34.00
2022-12-14T04:55:21.565Z,31.03
2022-12-14T04:58:00.829Z,34.80
2022-12-14T05:00:34.810Z,34.17
2022-12-14T05:03:19.863Z,31.97
2022-12-14T05:06:45.487Z,29.50
2022-12-14T05:09:17.868Z,33.10
2022-12-14T05:11:54.972Z,34.90
2022-12-14T05:14:31.757Z,31.40
2022-12-14T05:17:01.270Z,33.33
2022-12-14T05:19:30.162Z,29.97
2022-12-14T05:21:56.995Z,32.50
2022-12-14T05:24:23.701Z,34.23
2022-12-14T05:26:50.394Z,36.07
2022-12-14T05:29:17.753Z,32.73
2022-12-14T05:31:49.380Z,33.47
2022-12-14T05:34:16.846Z,33.07
2022-12-14T05:36:43.597Z,30.97
2022-12-14T05:39:10.291Z,30.27
2022-12-14T05:41:37.043Z,35.50
2022-12-14T05:44:03.862Z,36.87
2022-12-14T05:46:30.533Z,33.93
2022-12-14T05:48:57.278Z,39.47
2022-12-14T05:51:24.549Z,38.03
2022-12-14T05:53:51.330Z,33.23
2022-12-14T05:56:17.974Z,34.67
2022-12-14T05:58:44.611Z,38.00
2022-12-14T06:01:18.554Z,28.90
2022-12-14T06:03:45.830Z,38.47
2022-12-14T06:06:13.868Z,40.77
2022-12-14T06:08:43.306Z,42.07
2022-12-14T06:11:12.448Z,37.10
2022-12-14T06:13:40.633Z,35.90
2022-12-14T06:16:28.237Z,35.77
2022-12-14T06:18:57.018Z,38.03
2022-12-14T06:21:27.058Z,37.00
2022-12-14T06:23:55.542Z,41.03
2022-12-14T06:26:23.515Z,39.97
2022-12-14T06:28:50.510Z,36.73
2022-12-14T06:31:20.152Z,38.13
2022-12-14T06:33:47.605Z,34.47
2022-12-14T06:36:23.958Z,36.43
2022-12-14T06:38:51.731Z,35.80
2022-12-14T06:41:19.267Z,38.33
2022-12-14T06:43:49.267Z,38.33
2022-12-14T06:46:19.364Z,37.17
2022-12-14T06:48:50.873Z,39.07
2022-12-14T06:51:17.711Z,40.63
2022-12-14T06:53:44.679Z,42.33
2022-12-14T06:56:14.601Z,41.77
2022-12-14T06:58:42.084Z,39.37
2022-12-14T07:01:13.212Z,41.50
2022-12-14T07:03:41.334Z,38.20
2022-12-14T07:06:08.661Z,40.27
2022-12-14T07:08:37.128Z,39.27
2022-12-14T07:11:05.873Z,40.00
2022-12-14T07:13:33.066Z,37.00
2022-12-14T07:16:00.885Z,40.00
2022-12-14T07:18:28.206Z,40.73
2022-12-14T07:21:16.010Z,44.07
2022-12-14T07:23:44.214Z,36.23
2022-12-14T07:26:13.970Z,41.47
2022-12-14T07:28:41.468Z,43.43
2022-12-14T07:31:12.455Z,39.20
2022-12-14T07:33:39.290Z,44.10
2022-12-14T07:36:07.469Z,40.27
2022-12-14T07:38:35.976Z,37.73
2022-12-14T07:41:03.809Z,41.93
2022-12-14T07:43:30.752Z,39.30
2022-12-14T07:46:02.732Z,40.60
2022-12-14T07:48:30.426Z,40.87
2022-12-14T07:51:08.577Z,37.93
2022-12-14T07:53:36.944Z,35.57
2022-12-14T07:56:09.598Z,37.37
2022-12-14T07:58:37.572Z,38.67
2022-12-14T08:01:09.481Z,40.10
2022-12-14T08:03:36.999Z,33.33
2022-12-14T08:06:05.532Z,37.20
2022-12-14T08:08:32.996Z,34.33
2022-12-14T08:11:00.103Z,34.87
2022-12-14T08:13:27.269Z,37.60
2022-12-14T08:15:54.516Z,36.03
2022-12-14T08:18:21.563Z,35.30
2022-12-14T08:20:53.410Z,32.17
2022-12-14T08:23:20.282Z,31.10
2022-12-14T08:25:56.417Z,34.53
2022-12-14T08:28:23.659Z,32.77
2022-12-14T08:30:51.429Z,30.00
2022-12-14T08:33:19.405Z,27.33
2022-12-14T08:35:46.371Z,28.93
2022-12-14T08:38:13.292Z,33.20
2022-12-14T08:40:40.395Z,35.90
2022-12-14T08:43:09.072Z,35.90
2022-12-14T08:45:36.125Z,37.47
2022-12-14T08:48:02.949Z,34.13
2022-12-14T08:50:29.654Z,41.37
2022-12-14T08:52:56.347Z,37.30
2022-12-14T08:55:28.227Z,40.53
2022-12-14T08:57:55.994Z,32.63
2022-12-14T09:00:22.893Z,34.87
2022-12-14T09:02:51.028Z,30.03
2022-12-14T09:05:17.949Z,32.37
2022-12-14T09:07:44.755Z,31.80
2022-12-14T09:10:11.551Z,31.97
2022-12-14T09:12:39.397Z,30.60
2022-12-14T09:15:07.101Z,32.33
2022-12-14T09:17:34.449Z,35.27
2022-12-14T09:20:01.142Z,34.40
2022-12-14T09:22:29.251Z,34.83
2022-12-14T09:24:55.961Z,32.67
2022-12-14T09:27:22.782Z,32.33
2022-12-14T09:29:52.466Z,28.83
2022-12-14T09:32:19.177Z,33.10
2022-12-14T09:34:45.856Z,29.03
2022-12-14T09:37:12.840Z,29.70
2022-12-14T09:39:39.725Z,29.97
2022-12-14T09:42:29.544Z,28.13
2022-12-14T09:45:07.122Z,27.90
2022-12-14T09:47:58.135Z,29.40
2022-12-14T09:50:25.406Z,31.63
2022-12-14T09:52:59.185Z,29.33
2022-12-14T09:55:38.143Z,29.43
2022-12-14T09:58:20.805Z,31.37
2022-12-14T10:01:08.900Z,31.87
2022-12-14T10:04:12.714Z,31.90
2022-12-14T10:07:00.984Z,34.70
2022-12-14T10:09:55.761Z,33.97
2022-12-14T10:12:34.405Z,34.63
2022-12-14T10:15:10.255Z,33.57
2022-12-14T10:17:48.799Z,35.17
2022-12-14T10:20:22.234Z,36.37
2022-12-14T10:22:52.647Z,35.03
2022-12-14T10:25:22.624Z,36.07
2022-12-14T10:28:12.720Z,37.80
2022-12-14T10:30:42.456Z,33.07
2022-12-14T10:33:17.287Z,30.93
2022-12-14T10:35:53.245Z,35.43
2022-12-14T10:38:34.947Z,30.37
2022-12-14T10:41:25.972Z,33.27
2022-12-14T10:44:12.230Z,34.47
2022-12-14T10:47:04.953Z,36.00
2022-12-14T10:49:42.381Z,37.67
2022-12-14T10:52:18.578Z,37.17
2022-12-14T10:54:52.812Z,31.50
2022-12-14T10:57:22.291Z,38.37
2022-12-14T11:00:05.722Z,37.53
2022-12-14T11:02:40.067Z,34.53
2022-12-14T11:05:51.041Z,34.03
2022-12-14T11:08:41.512Z,38.30
2022-12-14T11:11:25.896Z,32.50
2022-12-14T11:14:07.957Z,36.77
2022-12-14T11:16:39.824Z,34.40
2022-12-14T11:19:18.187Z,38.47
2022-12-14T11:21:46.165Z,37.97
2022-12-14T11:24:28.278Z,40.17
2022-12-14T11:27:00.747Z,39.07
2022-12-14T11:29:30.492Z,37.33
2022-12-14T11:31:57.531Z,33.63
2022-12-14T11:34:38.884Z,37.43
2022-12-14T11:37:23.447Z,37.90
2022-12-14T11:40:05.261Z,40.70
2022-12-14T11:42:33.232Z,35.53
2022-12-14T11:45:26.064Z,39.73
2022-12-14T11:48:14.762Z,42.53
2022-12-14T11:50:42.911Z,39.10
2022-12-14T11:53:15.177Z,42.53
2022-12-14T11:56:02.011Z,47.07
2022-12-14T11:58:33.190Z,39.20
2022-12-14T12:01:14.598Z,42.17
2022-12-14T12:03:54.291Z,39.23
2022-12-14T12:06:29.825Z,40.97
2022-12-14T12:09:02.584Z,43.80
2022-12-14T12:11:34.180Z,40.63
2022-12-14T12:14:19.494Z,42.57
2022-12-14T12:16:46.280Z,44.70
2022-12-14T12:19:20.120Z,36.17
2022-12-14T12:21:47.383Z,37.53
2022-12-14T12:24:30.460Z,35.80
2022-12-14T12:27:00.135Z,40.67
2022-12-14T12:29:26.946Z,41.23
2022-12-14T12:32:08.911Z,42.97
2022-12-14T12:34:45.932Z,38.13
2022-12-14T12:37:31.526Z,39.97
2022-12-14T12:40:09.959Z,41.80
2022-12-14T12:42:53.044Z,33.93
2022-12-14T12:45:57.105Z,39.63
2022-12-14T12:48:33.543Z,34.67
2022-12-14T12:51:13.188Z,35.40
2022-12-14T12:53:48.085Z,30.77
2022-12-14T12:56:22.572Z,39.37
2022-12-14T12:58:53.140Z,40.00
2022-12-14T13:01:43.907Z,37.70
2022-12-14T13:04:23.284Z,34.27
2022-12-14T13:06:59.358Z,33.23
2022-12-14T13:09:49.411Z,33.50
2022-12-14T13:12:39.360Z,39.00
2022-12-14T13:15:19.136Z,33.93
2022-12-14T13:17:53.640Z,38.53
2022-12-14T13:20:30.625Z,44.50
2022-12-14T13:23:05.775Z,35.27
2022-12-14T13:26:23.374Z,36.77
2022-12-14T13:29:13.558Z,32.63
2022-12-14T13:31:51.720Z,35.17
2022-12-14T13:34:25.628Z,32.90
2022-12-14T13:37:10.965Z,33.23
2022-12-14T13:39:58.463Z,37.20
2022-12-14T13:42:33.152Z,54.70
2022-12-14T13:45:13.667Z,35.33
2022-12-14T13:47:45.327Z,30.97
2022-12-14T13:50:59.311Z,33.57
2022-12-14T13:53:48.556Z,36.17
2022-12-14T13:56:31.064Z,32.53
2022-12-14T13:59:01.602Z,33.03
2022-12-14T14:02:03.439Z,36.07
2022-12-14T14:04:32.209Z,36.47
2022-12-14T14:07:23.809Z,37.70
2022-12-14T14:10:00.367Z,39.13
2022-12-14T14:12:39.892Z,33.00
2022-12-14T14:15:30.706Z,33.30
2022-12-14T14:18:07.022Z,35.10
2022-12-14T14:20:46.744Z,35.33
2022-12-14T14:23:16.590Z,33.50
2022-12-14T14:25:49.067Z,37.53
2022-12-14T14:28:22.480Z,39.60
2022-12-14T14:30:51.555Z,38.63
2022-12-14T14:33:47.552Z,36.93
2022-12-14T14:36:24.827Z,36.00
2022-12-14T14:38:54.219Z,39.63
2022-12-14T14:41:51.840Z,60.33
2022-12-14T14:44:35.837Z,60.57
2022-12-14T14:47:07.533Z,41.67
2022-12-14T14:49:39.276Z,45.53
2022-12-14T14:52:40.290Z,44.03
2022-12-14T14:55:51.869Z,45.67
2022-12-14T14:58:26.204Z,38.57
2022-12-14T15:01:06.848Z,38.90
2022-12-14T15:04:02.127Z,40.00
2022-12-14T15:06:51.116Z,40.30
2022-12-14T15:09:31.819Z,36.40
2022-12-14T15:12:20.031Z,42.93
2022-12-14T15:14:52.977Z,38.33
2022-12-14T15:17:21.684Z,45.10
2022-12-14T15:19:49.407Z,46.63
2022-12-14T15:22:19.664Z,42.73
2022-12-14T15:24:49.592Z,46.50
2022-12-14T15:27:37.159Z,44.60
2022-12-14T15:30:24.630Z,49.20
2022-12-14T15:33:02.358Z,44.73
2022-12-14T15:35:32.915Z,40.03
2022-12-14T15:38:08.873Z,46.73
2022-12-14T15:40:36.174Z,47.50
2022-12-14T15:43:18.144Z,40.10
2022-12-14T15:45:48.479Z,40.93
2022-12-14T15:48:30.357Z,37.93
2022-12-14T15:51:11.081Z,37.13
2022-12-14T15:53:42.513Z,41.07
2022-12-14T15:56:19.361Z,37.00
2022-12-14T15:58:46.426Z,41.30
2022-12-14T16:01:25.760Z,39.97
2022-12-14T16:03:55.816Z,39.53
2022-12-14T16:06:26.329Z,40.63
2022-12-14T16:09:16.122Z,42.07
2022-12-14T16:11:46.459Z,46.03
2022-12-14T16:14:36.546Z,40.27
2022-12-14T16:17:04.250Z,39.47
2022-12-14T16:19:57.590Z,41.87
2022-12-14T16:22:32.379Z,33.13
2022-12-14T16:25:08.332Z,40.37
2022-12-14T16:27:44.687Z,35.27
2022-12-14T16:30:21.888Z,39.87
2022-12-14T16:32:52.153Z,47.80
2022-12-14T16:35:24.784Z,48.03
2022-12-14T16:37:55.748Z,38.00
2022-12-14T16:40:34.795Z,40.80
2022-12-14T16:43:02.983Z,38.67
2022-12-14T16:45:35.870Z,38.43
2022-12-14T16:48:13.342Z,44.53
2022-12-14T16:50:56.702Z,43.63
2022-12-14T16:53:29.830Z,40.40
2022-12-14T16:56:04.385Z,38.33
2022-12-14T16:58:31.548Z,47.30
2022-12-14T17:01:04.394Z,51.00
2022-12-14T17:03:32.124Z,45.67
2022-12-14T17:06:03.208Z,42.03
2022-12-14T17:08:30.972Z,40.07
2022-12-14T17:10:58.954Z,38.07
2022-12-14T17:13:25.715Z,37.03
2022-12-14T17:16:04.411Z,37.03
2022-12-14T17:18:41.720Z,34.67
2022-12-14T17:21:21.980Z,32.77
2022-12-14T17:23:48.874Z,32.33
2022-12-14T17:26:27.827Z,30.77
2022-12-14T17:28:55.300Z,33.73
2022-12-14T17:31:25.113Z,34.23
2022-12-14T17:33:53.280Z,35.07
2022-12-14T17:36:20.037Z,35.83
2022-12-14T17:38:46.793Z,32.00
2022-12-14T17:41:26.690Z,35.33
2022-12-14T17:43:57.639Z,37.47
2022-12-14T17:46:25.447Z,31.93
2022-12-14T17:48:52.563Z,39.40
2022-12-14T17:51:25.954Z,37.07
2022-12-14T17:53:55.607Z,34.70
2022-12-14T17:56:22.376Z,33.63
2022-12-14T17:58:50.065Z,38.57
2022-12-14T18:01:23.024Z,34.87
2022-12-14T18:03:50.820Z,32.97
2022-12-14T18:06:18.742Z,35.20
2022-12-14T18:08:46.138Z,33.07
2022-12-14T18:11:19.443Z,33.17
2022-12-14T18:13:47.360Z,34.63
2022-12-14T18:16:17.997Z,35.03
2022-12-14T18:18:46.073Z,35.03
2022-12-14T18:21:22.353Z,33.30
2022-12-14T18:23:50.487Z,34.53
2022-12-14T18:26:22.104Z,35.57
2022-12-14T18:28:50.750Z,30.90
2022-12-14T18:31:36.017Z,34.97
2022-12-14T18:34:03.500Z,33.60
2022-12-14T18:36:30.711Z,37.43
2022-12-14T18:38:57.791Z,34.70
2022-12-14T18:41:26.407Z,34.70
2022-12-14T18:43:54.427Z,32.93
2022-12-14T18:46:21.658Z,34.77
2022-12-14T18:48:48.928Z,33.47
2022-12-14T18:51:26.081Z,30.70
2022-12-14T18:53:54.951Z,33.60
2022-12-14T18:56:23.280Z,45.50
2022-12-14T18:58:50.309Z,40.80
2022-12-14T19:01:21.008Z,34.53
2022-12-14T19:03:48.606Z,34.90
2022-12-14T19:09:05.036Z,36.10
2022-12-14T19:11:34.428Z,32.60
2022-12-14T19:14:02.023Z,34.27
2022-12-14T19:16:28.896Z,33.53
2022-12-14T19:18:55.721Z,32.40
2022-12-14T19:21:25.277Z,35.13
2022-12-14T19:23:52.296Z,31.53
2022-12-14T19:26:19.070Z,31.83
2022-12-14T19:28:45.744Z,31.87
2022-12-14T19:31:12.840Z,32.47
2022-12-14T19:33:39.593Z,33.00
2022-12-14T19:36:08.277Z,29.37
2022-12-14T19:38:36.927Z,33.43
2022-12-14T19:41:07.598Z,26.50
2022-12-14T19:43:35.284Z,31.77
2022-12-14T19:46:06.463Z,31.17
2022-12-14T19:48:33.275Z,29.50
2022-12-14T19:51:07.146Z,31.53
2022-12-14T19:53:34.884Z,29.43
2022-12-14T19:56:01.775Z,33.30
2022-12-14T19:58:28.833Z,28.70
2022-12-14T20:00:56.187Z,27.80
2022-12-14T20:03:23.456Z,31.00
2022-12-14T20:05:55.703Z,28.77
2022-12-14T20:08:23.216Z,27.20
2022-12-14T20:10:52.513Z,26.37
2022-12-14T20:13:20.078Z,27.73
2022-12-14T20:15:55.513Z,27.17
2022-12-14T20:18:22.771Z,28.60
2022-12-14T20:20:50.734Z,26.93
2022-12-14T20:23:20.436Z,24.13
2022-12-14T20:25:47.400Z,28.50
2022-12-14T20:28:14.424Z,26.33
2022-12-14T20:30:46.665Z,28.33
2022-12-14T20:33:14.092Z,27.03
2022-12-14T20:35:40.756Z,29.20
2022-12-14T20:38:07.797Z,31.70
2022-12-14T20:40:38.630Z,27.03
2022-12-14T20:43:06.378Z,29.53
2022-12-14T20:45:38.130Z,28.57
2022-12-14T20:48:05.727Z,30.70
2022-12-14T20:50:32.591Z,29.70
2022-12-14T20:52:59.239Z,31.70
2022-12-14T20:55:26.040Z,29.43
2022-12-14T20:57:52.686Z,31.23
2022-12-14T21:00:19.528Z,31.63
2022-12-14T21:02:46.252Z,28.30
2022-12-14T21:05:13.215Z,30.83
2022-12-14T21:07:40.018Z,30.03
2022-12-14T21:10:07.423Z,27.30
2022-12-14T21:12:34.497Z,31.63
2022-12-14T21:15:01.590Z,28.83
2022-12-14T21:17:30.305Z,28.17
2022-12-14T21:19:57.810Z,29.37
2022-12-14T21:22:27.461Z,32.67
2022-12-14T21:25:03.694Z,33.57
2022-12-14T21:27:32.501Z,33.13
2022-12-14T21:30:00.525Z,32.73
2022-12-14T21:32:27.502Z,34.30
2022-12-14T21:34:54.178Z,32.73
2022-12-14T21:37:21.061Z,33.30
2022-12-14T21:39:54.447Z,29.10
2022-12-14T21:42:23.763Z,29.80
2022-12-14T21:44:51.834Z,31.60
2022-12-14T21:47:21.597Z,32.00
2022-12-14T21:49:48.637Z,32.00
2022-12-14T21:52:18.021Z,31.80
2022-12-14T21:54:44.976Z,34.47
2022-12-14T21:57:34.788Z,34.83
2022-12-14T22:00:02.095Z,31.00
2022-12-14T22:02:29.202Z,33.07
2022-12-14T22:04:56.375Z,30.03
2022-12-14T22:07:28.837Z,29.80
2022-12-14T22:09:55.480Z,34.20
2022-12-14T22:12:22.146Z,34.00
2022-12-14T22:14:49.679Z,31.50
2022-12-14T22:17:16.620Z,31.43
2022-12-14T22:19:43.357Z,34.03
2022-12-14T22:22:14.971Z,34.00
2022-12-14T22:24:41.724Z,31.97
2022-12-14T22:27:12.610Z,38.97
2022-12-14T22:29:39.580Z,33.53
2022-12-14T22:32:07.383Z,35.90
2022-12-14T22:34:34.544Z,36.93
2022-12-14T22:37:01.686Z,30.50
2022-12-14T22:39:28.859Z,33.60
2022-12-14T22:41:55.689Z,30.67
2022-12-14T22:44:22.391Z,32.20
2022-12-14T22:46:49.899Z,33.27
2022-12-14T22:49:18.976Z,32.50
2022-12-14T22:51:45.778Z,32.27
2022-12-14T22:54:22.368Z,35.90
2022-12-14T22:56:56.709Z,32.00
2022-12-14T22:59:48.114Z,32.83
2022-12-14T23:02:14.960Z,36.60
2022-12-14T23:04:41.856Z,33.50
2022-12-14T23:07:08.825Z,29.87
2022-12-14T23:09:54.017Z,31.57
2022-12-14T23:12:40.151Z,35.57
2022-12-14T23:15:25.943Z,35.40
2022-12-14T23:18:23.202Z,35.70
2022-12-14T23:21:08.625Z,36.83
2022-12-14T23:23:56.208Z,48.10
2022-12-14T23:26:41.610Z,42.90
2022-12-14T23:29:27.076Z,42.20
2022-12-14T23:32:12.502Z,31.90
2022-12-14T23:34:57.811Z,47.63
2022-12-14T23:37:43.527Z,49.27
2022-12-14T23:40:29.495Z,42.07
2022-12-14T23:43:14.949Z,48.27
2022-12-14T23:46:01.695Z,98.30
2022-12-14T23:48:46.923Z,68.53
2022-12-14T23:51:32.338Z,56.67
2022-12-14T23:54:17.676Z,70.07
2022-12-14T23:57:03.163Z,49.73
2022-12-14T23:59:49.662Z,89.60
